createdAt,value
2022-08-12T00:00:53.441Z,18.32
2022-08-12T00:03:40.699Z,18.29
2022-08-12T00:06:27.179Z,18.20
2022-08-12T00:09:12.779Z,18.16
2022-08-12T00:11:59.394Z,18.14
2022-08-12T00:14:44.842Z,18.12
2022-08-12T00:17:31.477Z,18.10
2022-08-12T00:20:18.564Z,18.10
2022-08-12T00:23:04.893Z,18.10
2022-08-12T00:26:21.426Z,18.10
2022-08-12T00:29:04.338Z,18.09
2022-08-12T00:31:50.054Z,18.02
2022-08-12T00:34:36.228Z,17.96
2022-08-12T00:37:23.574Z,17.92
2022-08-12T00:40:11.116Z,17.90
2022-08-12T00:42:40.026Z,17.85
2022-08-12T00:45:09.408Z,17.78
2022-08-12T00:47:39.025Z,17.76
2022-08-12T00:50:08.913Z,17.78
2022-08-12T00:52:38.873Z,17.79
2022-08-12T00:55:07.795Z,17.78
2022-08-12T00:57:37.657Z,17.79
2022-08-12T01:00:09.731Z,17.81
2022-08-12T01:02:40.849Z,17.79
2022-08-12T01:05:29.297Z,17.77
2022-08-12T01:08:16.367Z,17.77
2022-08-12T01:11:04.152Z,17.76
2022-08-12T01:13:34.956Z,17.75
2022-08-12T01:16:07.927Z,17.75
2022-08-12T01:18:38.634Z,17.74
2022-08-12T01:21:13.313Z,17.74
2022-08-12T01:23:58.630Z,17.74
2022-08-12T01:26:29.882Z,17.74
2022-08-12T01:29:00.274Z,17.74
2022-08-12T01:31:30.595Z,17.73
2022-08-12T01:34:05.848Z,17.73
2022-08-12T01:36:57.852Z,17.72
2022-08-12T01:39:31.489Z,17.72
2022-08-12T01:42:05.606Z,17.69
2022-08-12T01:44:35.014Z,17.70
2022-08-12T01:47:12.312Z,17.68
2022-08-12T01:49:55.097Z,17.67
2022-08-12T01:52:32.180Z,17.64
2022-08-12T01:55:01.255Z,17.58
2022-08-12T01:57:59.208Z,17.54
2022-08-12T02:00:43.375Z,17.48
2022-08-12T02:04:03.672Z,17.43
2022-08-12T02:06:52.876Z,17.39
2022-08-12T02:09:44.807Z,17.38
2022-08-12T02:12:24.788Z,17.34
2022-08-12T02:15:06.288Z,17.33
2022-08-12T02:17:55.370Z,17.30
2022-08-12T02:20:50.933Z,17.26
2022-08-12T02:23:27.170Z,17.25
2022-08-12T02:26:00.554Z,17.21
2022-08-12T02:28:29.328Z,17.12
2022-08-12T02:31:04.945Z,17.08
2022-08-12T02:33:33.915Z,17.06
2022-08-12T02:36:03.200Z,17.04
2022-08-12T02:38:31.788Z,17.00
2022-08-12T02:41:03.685Z,16.97
2022-08-12T02:43:41.569Z,16.93
2022-08-12T02:46:15.354Z,16.91
2022-08-12T02:48:49.321Z,16.89
2022-08-12T02:51:20.536Z,16.87
2022-08-12T02:54:03.215Z,16.85
2022-08-12T02:56:37.807Z,16.79
2022-08-12T02:59:11.990Z,16.78
2022-08-12T03:01:47.635Z,16.75
2022-08-12T03:04:27.013Z,16.70
2022-08-12T03:07:03.909Z,16.67
2022-08-12T03:09:52.405Z,16.66
2022-08-12T03:12:26.593Z,16.65
2022-08-12T03:15:06.642Z,16.65
2022-08-12T03:17:46.392Z,16.63
2022-08-12T03:20:41.001Z,16.59
2022-08-12T03:23:19.426Z,16.57
2022-08-12T03:25:59.042Z,16.55
2022-08-12T03:28:44.602Z,16.54
2022-08-12T03:31:12.776Z,16.52
2022-08-12T03:33:45.663Z,16.52
2022-08-12T03:36:35.928Z,16.49
2022-08-12T03:39:35.416Z,16.47
2022-08-12T03:42:17.098Z,16.44
2022-08-12T03:45:11.841Z,16.41
2022-08-12T03:48:04.728Z,16.36
2022-08-12T03:50:52.299Z,16.33
2022-08-12T03:53:45.300Z,16.32
2022-08-12T03:56:31.536Z,16.28
2022-08-12T03:59:19.234Z,16.27
2022-08-12T04:01:52.637Z,16.24
2022-08-12T04:04:22.692Z,16.20
2022-08-12T04:06:52.673Z,16.20
2022-08-12T04:09:23.232Z,16.19
2022-08-12T04:12:09.498Z,16.17
2022-08-12T04:14:38.031Z,16.14
2022-08-12T04:17:06.376Z,16.12
2022-08-12T04:19:34.699Z,16.11
2022-08-12T04:22:04.258Z,16.12
2022-08-12T04:24:36.151Z,16.09
2022-08-12T04:27:07.384Z,16.07
2022-08-12T04:30:16.685Z,16.06
2022-08-12T04:32:25.681Z,16.01
2022-08-12T04:34:55.345Z,16.00
2022-08-12T04:37:24.911Z,15.99
2022-08-12T04:39:54.709Z,15.99
2022-08-12T04:42:23.940Z,15.99
2022-08-12T04:44:52.123Z,15.97
2022-08-12T04:47:21.910Z,15.95
2022-08-12T04:49:49.999Z,15.95
2022-08-12T04:52:18.972Z,15.94
2022-08-12T04:54:49.152Z,15.95
2022-08-12T04:57:17.061Z,15.94
2022-08-12T04:59:48.300Z,15.97
2022-08-12T05:02:20.590Z,15.98
2022-08-12T05:04:51.916Z,15.99
2022-08-12T05:07:20.565Z,16.02
2022-08-12T05:09:59.300Z,16.03
2022-08-12T05:12:33.962Z,16.06
2022-08-12T05:15:02.313Z,16.07
2022-08-12T05:17:30.395Z,16.10
2022-08-12T05:19:59.885Z,16.13
2022-08-12T05:22:28.925Z,16.19
2022-08-12T05:24:58.352Z,16.21
2022-08-12T05:27:28.367Z,16.23
2022-08-12T05:30:07.512Z,16.26
2022-08-12T05:32:37.795Z,16.28
2022-08-12T05:35:08.277Z,16.33
2022-08-12T05:37:36.753Z,16.36
2022-08-12T05:40:11.193Z,16.40
2022-08-12T05:42:40.059Z,16.46
2022-08-12T05:45:12.063Z,16.54
2022-08-12T05:47:54.925Z,16.60
2022-08-12T05:50:23.178Z,16.65
2022-08-12T05:52:53.827Z,16.77
2022-08-12T05:55:27.000Z,17.12
2022-08-12T05:57:58.544Z,17.65
2022-08-12T06:00:29.412Z,17.67
2022-08-12T06:03:01.220Z,17.50
2022-08-12T06:05:30.635Z,17.39
2022-08-12T06:08:02.889Z,17.36
2022-08-12T06:10:33.277Z,17.36
2022-08-12T06:13:02.583Z,17.39
2022-08-12T06:15:31.765Z,17.42
2022-08-12T06:18:11.459Z,17.46
2022-08-12T06:20:44.835Z,17.50
2022-08-12T06:23:15.414Z,17.54
2022-08-12T06:25:46.674Z,17.58
2022-08-12T06:28:17.817Z,17.64
2022-08-12T06:31:02.635Z,17.67
2022-08-12T06:34:00.797Z,17.71
2022-08-12T06:36:29.325Z,17.76
2022-08-12T06:38:58.035Z,17.81
2022-08-12T06:42:28.515Z,17.82
2022-08-12T06:44:34.194Z,17.92
2022-08-12T06:47:02.421Z,17.94
2022-08-12T06:49:35.573Z,17.97
2022-08-12T06:52:04.596Z,18.03
2022-08-12T06:54:34.752Z,18.06
2022-08-12T06:58:05.186Z,18.14
2022-08-12T06:59:52.373Z,18.21
2022-08-12T07:02:22.949Z,18.24
2022-08-12T07:04:52.741Z,18.30
2022-08-12T07:07:21.397Z,18.38
2022-08-12T07:10:04.298Z,18.45
2022-08-12T07:12:37.059Z,18.52
2022-08-12T07:15:06.271Z,18.58
2022-08-12T07:17:38.036Z,18.63
2022-08-12T07:20:20.233Z,18.71
2022-08-12T07:22:57.740Z,18.79
2022-08-12T07:25:40.312Z,18.85
2022-08-12T07:28:16.905Z,18.94
2022-08-12T07:30:48.653Z,18.97
2022-08-12T07:33:17.976Z,19.03
2022-08-12T07:35:48.454Z,19.09
2022-08-12T07:38:29.868Z,19.15
2022-08-12T07:41:03.687Z,19.23
2022-08-12T07:43:35.544Z,19.30
2022-08-12T07:46:05.779Z,19.36
2022-08-12T07:48:38.380Z,19.43
2022-08-12T07:51:07.196Z,19.49
2022-08-12T07:53:47.719Z,19.53
2022-08-12T07:56:25.197Z,19.62
2022-08-12T07:58:55.277Z,19.66
2022-08-12T08:01:23.931Z,19.69
2022-08-12T08:04:15.165Z,19.73
2022-08-12T08:06:49.117Z,19.79
2022-08-12T08:09:22.443Z,19.83
2022-08-12T08:12:08.572Z,19.89
2022-08-12T08:14:38.097Z,19.96
2022-08-12T08:17:08.046Z,20.01
2022-08-12T08:19:48.717Z,20.08
2022-08-12T08:22:41.648Z,20.11
2022-08-12T08:25:36.235Z,20.22
2022-08-12T08:28:03.037Z,21.46
2022-08-12T08:30:42.579Z,23.68
2022-08-12T08:33:22.622Z,25.45
2022-08-12T08:36:02.032Z,26.98
2022-08-12T08:38:33.153Z,28.10
2022-08-12T08:42:15.897Z,28.68
2022-08-12T08:44:11.038Z,29.53
2022-08-12T08:46:43.859Z,29.89
2022-08-12T08:49:12.729Z,30.43
2022-08-12T08:51:41.620Z,30.87
2022-08-12T08:54:15.546Z,31.20
2022-08-12T08:56:46.462Z,31.18
2022-08-12T08:59:15.412Z,31.19
2022-08-12T09:01:45.358Z,30.96
2022-08-12T09:05:08.783Z,30.77
2022-08-12T09:07:17.094Z,30.37
2022-08-12T09:10:02.487Z,29.04
2022-08-12T09:12:54.102Z,28.11
2022-08-12T09:15:35.716Z,27.17
2022-08-12T09:21:03.909Z,26.21
2022-08-12T09:23:58.601Z,25.89
2022-08-12T09:26:28.114Z,25.69
2022-08-12T09:28:57.103Z,25.46
2022-08-12T09:32:04.382Z,25.39
2022-08-12T09:34:27.351Z,25.53
2022-08-12T09:37:18.763Z,25.48
2022-08-12T09:40:05.114Z,25.30
2022-08-12T09:43:15.477Z,25.24
2022-08-12T09:46:19.726Z,25.41
2022-08-12T09:48:39.266Z,25.37
2022-08-12T09:51:17.070Z,25.24
2022-08-12T09:54:08.478Z,25.16
2022-08-12T09:57:01.876Z,25.15
2022-08-12T10:00:15.573Z,25.15
2022-08-12T10:02:44.844Z,25.20
2022-08-12T10:05:06.523Z,25.42
2022-08-12T10:07:42.786Z,25.79
2022-08-12T10:10:22.335Z,25.78
2022-08-12T10:13:34.068Z,25.72
2022-08-12T10:16:05.605Z,25.78
2022-08-12T10:18:35.419Z,25.82
2022-08-12T10:21:07.668Z,25.79
2022-08-12T10:23:40.033Z,25.91
2022-08-12T10:26:36.814Z,25.96
2022-08-12T10:30:02.968Z,25.98
2022-08-12T10:32:21.631Z,25.78
2022-08-12T10:35:05.319Z,25.48
2022-08-12T10:38:34.201Z,25.35
2022-08-12T10:40:33.266Z,25.42
2022-08-12T10:43:19.431Z,25.38
2022-08-12T10:45:49.753Z,25.40
2022-08-12T10:48:33.414Z,25.46
2022-08-12T10:51:51.550Z,25.42
2022-08-12T10:54:00.655Z,25.55
2022-08-12T10:56:34.180Z,25.65
2022-08-12T10:59:03.944Z,25.87
2022-08-12T11:04:19.466Z,26.04
2022-08-12T11:04:41.358Z,26.25
2022-08-12T11:08:35.053Z,26.29
2022-08-12T11:10:01.544Z,26.32
2022-08-12T11:12:58.516Z,26.47
2022-08-12T11:15:32.890Z,26.55
2022-08-12T11:18:18.051Z,26.52
2022-08-12T11:20:48.728Z,26.42
2022-08-12T11:23:25.847Z,26.35
2022-08-12T11:26:07.626Z,26.22
2022-08-12T11:28:38.748Z,26.19
2022-08-12T11:31:11.879Z,26.33
2022-08-12T11:34:04.920Z,26.32
2022-08-12T11:36:29.447Z,26.39
2022-08-12T11:39:04.247Z,26.48
2022-08-12T11:41:34.812Z,26.55
2022-08-12T11:44:35.651Z,26.58
2022-08-12T11:46:54.749Z,26.65
2022-08-12T11:49:30.847Z,26.73
2022-08-12T11:52:02.439Z,26.95
2022-08-12T11:54:31.099Z,26.98
2022-08-12T11:57:02.269Z,26.90
2022-08-12T12:02:21.861Z,27.24
2022-08-12T12:04:52.752Z,27.34
2022-08-12T12:08:36.168Z,27.35
2022-08-12T12:10:12.959Z,27.37
2022-08-12T12:12:49.529Z,27.31
2022-08-12T12:15:25.350Z,27.39
2022-08-12T12:18:22.514Z,27.39
2022-08-12T12:21:00.666Z,27.35
2022-08-12T12:23:29.539Z,27.35
2022-08-12T12:26:07.412Z,27.42
2022-08-12T12:28:39.687Z,27.64
2022-08-12T12:31:14.877Z,27.71
2022-08-12T12:33:59.046Z,27.94
2022-08-12T12:36:30.039Z,28.03
2022-08-12T12:39:00.196Z,28.15
2022-08-12T12:42:54.338Z,28.19
2022-08-12T12:44:26.042Z,28.00
2022-08-12T12:47:00.857Z,28.14
2022-08-12T12:49:30.206Z,28.13
2022-08-12T12:52:18.571Z,28.00
2022-08-12T12:54:52.978Z,27.68
2022-08-12T12:57:36.466Z,27.57
2022-08-12T13:00:16.905Z,27.65
2022-08-12T13:02:54.069Z,27.65
2022-08-12T13:05:27.913Z,27.94
2022-08-12T13:08:01.063Z,28.14
2022-08-12T13:10:36.953Z,28.31
2022-08-12T13:14:06.948Z,28.27
2022-08-12T13:15:59.091Z,28.43
2022-08-12T13:18:31.712Z,28.68
2022-08-12T13:20:59.983Z,28.65
2022-08-12T13:23:36.326Z,28.51
2022-08-12T13:26:14.669Z,28.40
2022-08-12T13:28:49.682Z,28.35
2022-08-12T13:31:24.920Z,28.37
2022-08-12T13:34:32.000Z,28.43
2022-08-12T13:36:47.447Z,28.35
2022-08-12T13:39:16.346Z,28.36
2022-08-12T13:41:44.997Z,28.40
2022-08-12T13:44:14.484Z,28.13
2022-08-12T13:46:42.707Z,28.23
2022-08-12T13:49:17.690Z,28.30
2022-08-12T13:52:02.452Z,28.46
2022-08-12T13:54:32.978Z,28.51
2022-08-12T13:57:01.441Z,28.46
2022-08-12T13:59:30.884Z,28.44
2022-08-12T14:02:18.475Z,28.18
2022-08-12T14:04:56.520Z,28.08
2022-08-12T14:07:26.020Z,28.12
2022-08-12T14:10:16.472Z,28.04
2022-08-12T14:12:54.008Z,28.01
2022-08-12T14:15:34.970Z,28.07
2022-08-12T14:18:08.518Z,28.08
2022-08-12T14:20:37.929Z,28.05
2022-08-12T14:24:01.180Z,27.99
2022-08-12T14:25:59.005Z,28.10
2022-08-12T14:28:28.182Z,28.08
2022-08-12T14:31:01.391Z,28.03
2022-08-12T14:33:43.956Z,27.86
2022-08-12T14:36:14.180Z,27.77
2022-08-12T14:38:44.362Z,27.71
2022-08-12T14:41:16.141Z,27.68
2022-08-12T14:44:04.764Z,27.54
2022-08-12T14:46:32.346Z,27.68
2022-08-12T14:49:27.637Z,27.74
2022-08-12T14:53:11.300Z,27.66
2022-08-12T14:57:56.442Z,27.35
2022-08-12T16:06:11.810Z,27.18
2022-08-12T16:08:36.920Z,27.14
2022-08-12T16:11:14.918Z,26.99
2022-08-12T16:13:46.922Z,26.89
2022-08-12T16:16:23.357Z,26.89
2022-08-12T16:18:56.107Z,26.88
2022-08-12T16:21:51.427Z,26.89
2022-08-12T16:24:14.474Z,26.93
2022-08-12T16:26:44.993Z,26.90
2022-08-12T16:29:15.098Z,26.90
2022-08-12T16:31:43.960Z,27.02
2022-08-12T16:34:26.094Z,26.99
2022-08-12T16:37:10.070Z,26.98
2022-08-12T16:40:00.628Z,27.08
2022-08-12T16:42:28.224Z,27.14
2022-08-12T16:44:57.005Z,27.07
2022-08-12T16:47:27.221Z,27.06
2022-08-12T16:49:57.881Z,27.03
2022-08-12T16:52:27.969Z,26.94
2022-08-12T16:54:56.478Z,26.90
2022-08-12T16:57:43.066Z,26.84
2022-08-12T17:00:14.421Z,26.92
2022-08-12T17:02:44.261Z,27.05
2022-08-12T17:05:19.328Z,27.03
2022-08-12T17:07:52.900Z,27.06
2022-08-12T17:10:36.003Z,26.90
2022-08-12T17:13:10.179Z,26.85
2022-08-12T17:15:56.850Z,26.86
2022-08-12T17:18:43.052Z,26.82
2022-08-12T17:21:17.307Z,26.74
2022-08-12T17:23:53.318Z,26.67
2022-08-12T17:26:28.393Z,26.68
2022-08-12T17:29:00.695Z,26.65
2022-08-12T17:31:59.403Z,26.59
2022-08-12T17:34:33.372Z,26.43
2022-08-12T17:37:02.771Z,26.44
2022-08-12T17:40:12.799Z,26.50
2022-08-12T17:42:32.831Z,26.40
2022-08-12T17:45:15.592Z,26.15
2022-08-12T17:48:02.319Z,25.87
2022-08-12T17:50:35.960Z,25.64
2022-08-12T17:53:04.751Z,25.57
2022-08-12T17:55:43.547Z,25.54
2022-08-12T17:58:35.494Z,25.36
2022-08-12T18:01:11.152Z,25.28
2022-08-12T18:04:04.522Z,25.20
2022-08-12T18:06:30.467Z,25.14
2022-08-12T18:09:09.485Z,25.05
2022-08-12T18:12:06.158Z,25.00
2022-08-12T18:14:37.106Z,24.88
2022-08-12T18:17:08.777Z,24.86
2022-08-12T18:20:06.320Z,24.75
2022-08-12T18:22:30.459Z,24.69
2022-08-12T18:25:02.540Z,24.61
2022-08-12T18:27:44.091Z,24.52
2022-08-12T18:30:21.016Z,24.42
2022-08-12T18:33:03.829Z,24.36
2022-08-12T18:35:46.976Z,24.31
2022-08-12T18:38:21.921Z,24.21
2022-08-12T18:41:09.637Z,24.15
2022-08-12T18:43:58.872Z,24.06
2022-08-12T18:46:34.997Z,23.98
2022-08-12T18:49:18.023Z,23.82
2022-08-12T18:51:55.224Z,23.67
2022-08-12T18:54:27.076Z,23.60
2022-08-12T18:56:59.406Z,23.56
2022-08-12T19:00:02.236Z,23.47
2022-08-12T19:02:22.468Z,23.38
2022-08-12T19:04:53.559Z,23.27
2022-08-12T19:07:24.732Z,23.16
2022-08-12T19:09:57.845Z,23.08
2022-08-12T19:12:57.244Z,23.00
2022-08-12T19:15:30.086Z,22.95
2022-08-12T19:18:02.830Z,22.87
2022-08-12T19:20:34.088Z,22.83
2022-08-12T19:23:07.907Z,22.80
2022-08-12T19:26:00.047Z,22.76
2022-08-12T19:28:34.505Z,22.72
2022-08-12T19:31:56.719Z,22.67
2022-08-12T19:37:20.243Z,22.56
2022-08-12T19:40:10.160Z,22.50
2022-08-12T19:42:44.958Z,22.42
2022-08-12T19:45:17.625Z,22.38
2022-08-12T19:47:47.119Z,22.32
2022-08-12T19:50:19.643Z,22.27
2022-08-12T19:52:53.413Z,22.22
2022-08-12T19:55:23.610Z,22.16
2022-08-12T19:58:01.826Z,22.09
2022-08-12T20:00:34.728Z,22.02
2022-08-12T20:03:06.409Z,21.99
2022-08-12T20:06:05.028Z,21.94
2022-08-12T20:08:34.065Z,21.91
2022-08-12T20:12:15.110Z,21.88
2022-08-12T20:14:00.384Z,21.81
2022-08-12T20:16:57.828Z,21.76
2022-08-12T20:19:28.642Z,21.72
2022-08-12T20:22:24.270Z,21.70
2022-08-12T20:24:57.971Z,21.65
2022-08-12T20:28:03.045Z,21.59
2022-08-12T20:30:20.297Z,21.54
2022-08-12T20:32:56.072Z,21.47
2022-08-12T20:35:39.061Z,21.42
2022-08-12T20:38:26.328Z,21.37
2022-08-12T20:40:55.724Z,21.34
2022-08-12T20:43:28.056Z,21.29
2022-08-12T20:45:59.373Z,21.27
2022-08-12T20:48:29.456Z,21.23
2022-08-12T20:51:04.696Z,21.16
2022-08-12T20:53:57.776Z,21.08
2022-08-12T20:56:30.797Z,21.00
2022-08-12T20:59:02.739Z,20.95
2022-08-12T21:01:46.111Z,20.92
2022-08-12T21:04:33.133Z,20.93
2022-08-12T21:07:09.486Z,20.91
2022-08-12T21:09:42.180Z,20.90
2022-08-12T21:12:28.650Z,20.83
2022-08-12T21:15:18.182Z,20.76
2022-08-12T21:18:11.499Z,20.75
2022-08-12T21:20:49.695Z,20.67
2022-08-12T21:23:21.434Z,20.58
2022-08-12T21:25:51.171Z,20.53
2022-08-12T21:28:21.186Z,20.50
2022-08-12T21:32:34.634Z,20.45
2022-08-12T21:33:58.881Z,20.44
2022-08-12T21:36:34.638Z,20.42
2022-08-12T21:39:19.090Z,20.40
2022-08-12T21:41:52.085Z,20.40
2022-08-12T21:44:24.305Z,20.37
2022-08-12T21:47:20.000Z,20.35
2022-08-12T21:49:55.301Z,20.30
2022-08-12T21:52:34.759Z,20.29
2022-08-12T21:55:08.464Z,20.24
2022-08-12T21:57:51.286Z,20.22
2022-08-12T22:00:32.835Z,20.15
2022-08-12T22:03:55.019Z,20.09
2022-08-12T22:06:31.259Z,20.07
2022-08-12T22:09:16.892Z,20.03
2022-08-12T22:11:58.643Z,20.03
2022-08-12T22:14:28.765Z,20.00
2022-08-12T22:17:00.373Z,19.98
2022-08-12T22:19:29.089Z,19.95
2022-08-12T22:22:04.815Z,19.93
2022-08-12T22:24:33.258Z,19.88
2022-08-12T22:27:08.069Z,19.86
2022-08-12T22:30:16.471Z,19.84
2022-08-12T22:32:49.727Z,19.82
2022-08-12T22:35:55.465Z,19.78
2022-08-12T22:38:24.069Z,19.72
2022-08-12T22:40:55.106Z,19.68
2022-08-12T22:43:58.955Z,19.65
2022-08-12T22:46:52.079Z,19.56
2022-08-12T22:49:36.572Z,19.53
2022-08-12T22:52:08.612Z,19.49
2022-08-12T22:54:37.908Z,19.44
2022-08-12T22:57:48.994Z,19.42
2022-08-12T23:00:27.025Z,19.40
2022-08-12T23:02:58.298Z,19.36
2022-08-12T23:05:56.826Z,19.31
2022-08-12T23:08:22.467Z,19.25
2022-08-12T23:10:50.841Z,19.20
2022-08-12T23:13:43.838Z,19.15
2022-08-12T23:16:28.104Z,19.13
2022-08-12T23:18:59.593Z,19.13
2022-08-12T23:21:40.485Z,19.11
2022-08-12T23:24:16.938Z,19.11
2022-08-12T23:27:04.636Z,19.10
2022-08-12T23:29:43.155Z,19.09
2022-08-12T23:32:35.241Z,19.06
2022-08-12T23:35:03.948Z,19.04
2022-08-12T23:37:46.613Z,19.05
2022-08-12T23:40:18.007Z,19.05
2022-08-12T23:42:48.648Z,19.02
2022-08-12T23:45:20.147Z,18.98
2022-08-12T23:48:02.832Z,18.97
2022-08-12T23:50:34.166Z,18.96
2022-08-12T23:53:06.734Z,18.97
2022-08-12T23:55:50.744Z,18.95
2022-08-12T23:58:22.768Z,18.92
